Time;durP1;ratioP1;P1;durP2;ratioP2;P2;SDS_P1;SDS_P2;PMS_P1;PMS_P2;Temp;Humidity;BMP_temperature;BMP_pressure;BME280_temperature;BME280_humidity;BME280_pressure;Samples;Min_cycle;Max_cycle;Signal;HPM_P1;HPM_P2
2023/01/22 00:01:00;;;;;;;34.20;13.70;;;;;;;;;;106979;1277;22539;-82
2023/01/22 00:07:02;;;;;;;;;;;;;;;;;;;;;
2023/01/22 00:10:22;;;;;;;35.10;12.50;;;;;;;;;;107125;1275;24366;-87
2023/01/22 00:13:20;;;;;;;;;;;;;;;;;;;;;
2023/01/22 00:16:23;;;;;;;30.00;13.00;;;;;;;;;;106757;1281;22660;-86
2023/01/22 00:19:42;;;;;;;;;;;;;;;;;;;;;
2023/01/22 00:26:12;;;;;;;;;;;;;;;;;;;;;
2023/01/22 00:28:53;;;;;;;35.20;13.90;;;;;;;;;;106644;1281;25436;-83
2023/01/22 00:31:43;;;;;;;45.70;14.50;;;;;;;;;;106507;1260;22753;-86
2023/01/22 00:34:30;;;;;;;32.20;13.90;;;;;;;;;;106705;1257;22534;-83
2023/01/22 00:38:03;;;;;;;33.40;13.10;;;;;;;;;;106728;1281;22542;-83
2023/01/22 00:40:38;;;;;;;33.90;12.90;;;;;;;;;;106065;1289;22565;-85
2023/01/22 00:44:14;;;;;;;32.70;13.30;;;;;;;;;;106027;1289;25308;-84
2023/01/22 00:47:16;;;;;;;47.90;15.40;;;;;;;;;;106024;1274;22559;-88
2023/01/22 00:50:01;;;;;;;34.70;12.50;;;;;;;;;;106008;1289;23030;-84
2023/01/22 00:53:10;;;;;;;;;;;;;;;;;;;;;
2023/01/22 00:56:12;;;;;;;31.20;12.80;;;;;;;;;;106432;1260;24211;-85
2023/01/22 00:59:04;;;;;;;31.50;13.70;;;;;;;;;;106425;1284;25554;-85
2023/01/22 01:02:07;;;;;;;33.70;13.00;;;;;;;;;;106451;1284;24262;-89
2023/01/22 01:04:48;;;;;;;31.10;12.60;;;;;;;;;;106404;1284;22556;-87
2023/01/22 01:07:49;;;;;;;;;;;;;;;;;;;;;
2023/01/22 01:10:51;;;;;;;;;;;;;;;;;;;;;
2023/01/22 01:13:53;;;;;;;33.70;12.20;;;;;;;;;;106030;1289;22727;-87
2023/01/22 01:17:28;;;;;;;44.40;12.80;;;;;;;;;;106023;1272;25243;-87
2023/01/22 01:20:08;;;;;;;29.50;11.90;;;;;;;;;;106014;1289;22892;-86
2023/01/22 01:22:51;;;;;;;29.00;13.00;;;;;;;;;;105991;1289;23929;-84
2023/01/22 01:25:51;;;;;;;31.80;11.90;;;;;;;;;;105933;1289;25299;-86
2023/01/22 01:28:44;;;;;;;34.60;12.60;;;;;;;;;;105985;1289;24208;-85
2023/01/22 01:31:30;;;;;;;33.00;12.60;;;;;;;;;;106009;1289;22665;-87
2023/01/22 01:35:23;;;;;;;47.30;13.50;;;;;;;;;;105982;1289;22560;-85
2023/01/22 01:41:38;;;;;;;;;;;;;;;;;;;;;
2023/01/22 01:45:03;;;;;;;36.40;13.50;;;;;;;;;;105088;1295;22654;-84
2023/01/22 01:48:02;;;;;;;;;;;;;;;;;;;;;
2023/01/22 01:51:47;;;;;;;40.20;14.40;;;;;;;;;;105770;1290;25444;-87
2023/01/22 01:55:14;;;;;;;32.50;12.20;;;;;;;;;;105732;1293;22560;-85
2023/01/22 01:57:45;;;;;;;34.80;14.20;;;;;;;;;;105973;1270;22813;-83
2023/01/22 02:01:34;;;;;;;37.40;13.40;;;;;;;;;;106002;1289;22595;-86
2023/01/22 02:03:55;;;;;;;36.20;14.30;;;;;;;;;;106061;1289;23009;-87
2023/01/22 02:07:02;;;;;;;34.00;13.20;;;;;;;;;;105980;1270;24261;-83
2023/01/22 02:10:41;;;;;;;35.10;12.30;;;;;;;;;;106059;1267;24249;-87
2023/01/22 02:13:50;;;;;;;37.30;12.70;;;;;;;;;;106013;1289;25305;-86
2023/01/22 02:16:56;;;;;;;37.20;14.30;;;;;;;;;;106638;1267;23127;-82
2023/01/22 02:20:20;;;;;;;37.20;14.30;;;;;;;;;;109636;1289;22151;-82
2023/01/22 02:22:31;;;;;;;34.90;13.20;;;;;;;;;;109937;1283;22156;-82
2023/01/22 02:25:15;;;;;;;37.90;12.80;;;;;;;;;;109947;1283;22135;-82
2023/01/22 02:27:45;;;;;;;36.70;12.80;;;;;;;;;;109978;1265;22858;-83
2023/01/22 02:30:15;;;;;;;41.30;13.40;;;;;;;;;;110099;1276;22112;-83
2023/01/22 02:32:47;;;;;;;32.10;13.00;;;;;;;;;;110206;1276;22108;-82
2023/01/22 02:35:36;;;;;;;;;;;;;;;;;;;;;
2023/01/22 02:38:34;;;;;;;;;;;;;;;;;;;;;
2023/01/22 02:41:16;;;;;;;;;;;;;;;;;;;;;
2023/01/22 02:43:58;;;;;;;35.20;13.10;;;;;;;;;;110486;1276;22089;-82
2023/01/22 02:46:37;;;;;;;35.50;13.80;;;;;;;;;;110447;1276;22353;-82
2023/01/22 02:49:04;;;;;;;32.20;13.50;;;;;;;;;;110229;1276;22791;-82
2023/01/22 02:51:37;;;;;;;36.70;13.80;;;;;;;;;;110364;1276;22150;-82
2023/01/22 02:54:22;;;;;;;;;;;;;;;;;;;;;
2023/01/22 02:56:54;;;;;;;38.00;12.60;;;;;;;;;;110338;1276;22385;-82
2023/01/22 03:00:23;;;;;;;32.30;13.40;;;;;;;;;;110935;1259;22183;-82
2023/01/22 03:02:33;;;;;;;39.50;15.20;;;;;;;;;;110413;1276;22121;-82
2023/01/22 03:05:10;;;;;;;39.70;13.50;;;;;;;;;;110607;1276;22978;-82
2023/01/22 03:07:49;;;;;;;43.30;14.70;;;;;;;;;;110498;1253;22161;-82
2023/01/22 03:10:19;;;;;;;38.00;14.60;;;;;;;;;;110624;1276;22891;-82
2023/01/22 03:22:19;;;;;;;37.10;14.00;;;;;;;;;;110510;1276;22197;-82
2023/01/22 03:24:52;;;;;;;38.50;14.20;;;;;;;;;;110322;1276;22298;-82
2023/01/22 03:27:43;;;;;;;;;;;;;;;;;;;;;
2023/01/22 03:30:13;;;;;;;40.30;14.70;;;;;;;;;;110494;1256;22106;-82
2023/01/22 03:33:05;;;;;;;42.60;15.40;;;;;;;;;;110467;1276;22479;-82
2023/01/22 03:35:37;;;;;;;38.10;14.50;;;;;;;;;;110452;1276;22914;-82
2023/01/22 03:38:49;;;;;;;39.90;15.60;;;;;;;;;;110475;1253;22138;-82
2023/01/22 03:41:25;;;;;;;40.10;15.20;;;;;;;;;;110368;1276;22114;-82
2023/01/22 03:44:05;;;;;;;;;;;;;;;;;;;;;
2023/01/22 03:46:39;;;;;;;41.00;14.30;;;;;;;;;;110514;1276;23023;-82
2023/01/22 03:49:16;;;;;;;39.10;14.20;;;;;;;;;;110648;1258;22194;-81
2023/01/22 03:51:43;;;;;;;35.50;14.10;;;;;;;;;;110440;1276;22913;-82
2023/01/22 03:54:23;;;;;;;33.40;13.90;;;;;;;;;;110432;1276;22108;-82
2023/01/22 03:56:57;;;;;;;34.40;13.50;;;;;;;;;;110342;1276;22099;-81
2023/01/22 04:00:02;;;;;;;;;;;;;;;;;;;;;
2023/01/22 04:06:37;;;;;;;39.80;13.70;;;;;;;;;;110129;1281;22839;-82
2023/01/22 04:17:04;;;;;;;34.10;13.20;;;;;;;;;;110307;1276;22829;-81
2023/01/22 04:26:43;;;;;;;38.40;14.30;;;;;;;;;;110376;1277;22120;-82
2023/01/22 04:29:13;;;;;;;39.00;14.40;;;;;;;;;;110395;1277;22579;-82
2023/01/22 04:32:08;;;;;;;;;;;;;;;;;;;;;
2023/01/22 04:39:04;;;;;;;32.40;13.50;;;;;;;;;;110098;1281;22379;-82
2023/01/22 04:41:41;;;;;;;38.90;14.60;;;;;;;;;;110011;1261;22001;-82
2023/01/22 04:44:19;;;;;;;36.40;14.50;;;;;;;;;;110033;1281;22148;-82
2023/01/22 04:50:58;;;;;;;28.00;12.40;;;;;;;;;;109696;1269;22264;-82
2023/01/22 04:54:26;;;;;;;;;;;;;;;;;;;;;
2023/01/22 05:01:49;;;;;;;;;;;;;;;;;;;;;
2023/01/22 05:08:35;;;;;;;38.10;14.70;;;;;;;;;;109823;1287;22181;-82
2023/01/22 05:12:14;;;;;;;37.90;15.40;;;;;;;;;;109706;1267;22034;-82
2023/01/22 05:14:58;;;;;;;;;;;;;;;;;;;;;
2023/01/22 05:22:25;;;;;;;;;;;;;;;;;;;;;
2023/01/22 05:24:58;;;;;;;40.50;15.80;;;;;;;;;;109372;1291;22204;-82
2023/01/22 05:27:34;;;;;;;48.70;16.80;;;;;;;;;;109217;1291;22863;-82
2023/01/22 05:30:13;;;;;;;47.30;17.00;;;;;;;;;;109357;1291;22186;-82
2023/01/22 05:33:54;;;;;;;51.50;17.20;;;;;;;;;;109539;1267;22166;-82
2023/01/22 05:36:23;;;;;;;54.90;18.50;;;;;;;;;;109542;1291;22078;-82
2023/01/22 05:39:16;;;;;;;59.30;19.80;;;;;;;;;;109495;1291;22076;-81
2023/01/22 05:50:27;;;;;;;;;;;;;;;;;;;;;
2023/01/22 05:53:25;;;;;;;57.80;20.10;;;;;;;;;;109402;1270;23034;-82
2023/01/22 05:56:04;;;;;;;55.00;20.50;;;;;;;;;;109557;1291;23087;-82
2023/01/22 05:58:54;;;;;;;60.60;21.20;;;;;;;;;;109378;1291;23042;-82
2023/01/22 06:01:29;;;;;;;69.40;24.30;;;;;;;;;;109339;1268;23071;-82
2023/01/22 06:04:02;;;;;;;69.60;22.30;;;;;;;;;;109273;1291;22129;-82
2023/01/22 06:06:50;;;;;;;78.70;24.50;;;;;;;;;;109372;1291;22196;-82
2023/01/22 06:10:35;;;;;;;;;;;;;;;;;;;;;
2023/01/22 06:13:46;;;;;;;56.50;19.40;;;;;;;;;;109097;1271;22240;-82
2023/01/22 06:24:01;;;;;;;52.50;19.80;;;;;;;;;;108950;1276;22200;-82
2023/01/22 06:26:36;;;;;;;48.50;19.20;;;;;;;;;;108998;1296;22164;-82
2023/01/22 06:29:05;;;;;;;51.10;20.20;;;;;;;;;;108997;1295;22800;-82
2023/01/22 06:31:35;;;;;;;50.60;20.20;;;;;;;;;;108951;1295;22171;-82
2023/01/22 06:41:43;;;;;;;;;;;;;;;;;;;;;
2023/01/22 06:44:27;;;;;;;49.20;17.70;;;;;;;;;;108559;1277;22247;-81
2023/01/22 06:47:21;;;;;;;47.00;19.30;;;;;;;;;;108454;1300;22855;-82
2023/01/22 06:50:05;;;;;;;53.10;19.80;;;;;;;;;;108737;1296;21738;-82
2023/01/22 06:52:43;;;;;;;50.70;21.60;;;;;;;;;;108912;1270;22154;-81
2023/01/22 06:55:28;;;;;;;48.90;19.50;;;;;;;;;;109190;1294;22316;-82
2023/01/22 06:58:15;;;;;;;75.40;26.90;;;;;;;;;;109739;1287;22160;-81
2023/01/22 07:00:46;;;;;;;86.20;31.60;;;;;;;;;;109689;1287;22442;-81
2023/01/22 07:03:15;;;;;;;74.70;28.50;;;;;;;;;;109738;1267;22129;-81
2023/01/22 07:05:59;;;;;;;60.60;22.50;;;;;;;;;;109750;1284;22973;-81
2023/01/22 07:08:38;;;;;;;72.60;27.90;;;;;;;;;;109744;1287;22170;-81
2023/01/22 07:11:14;;;;;;;64.50;26.00;;;;;;;;;;109736;1287;22942;-81
2023/01/22 07:14:20;;;;;;;58.80;25.70;;;;;;;;;;109887;1267;21974;-81
2023/01/22 07:16:55;;;;;;;61.90;24.70;;;;;;;;;;110155;1279;21932;-81
2023/01/22 07:19:25;;;;;;;48.80;20.00;;;;;;;;;;110154;1279;22134;-81
2023/01/22 07:21:52;;;;;;;51.50;21.70;;;;;;;;;;110106;1280;22160;-81
2023/01/22 07:25:14;;;;;;;48.20;20.20;;;;;;;;;;110309;1262;22131;-81
2023/01/22 07:27:18;;;;;;;45.60;19.50;;;;;;;;;;110175;1280;22974;-81
2023/01/22 07:29:49;;;;;;;48.10;19.80;;;;;;;;;;110121;1280;22887;-81
2023/01/22 07:32:24;;;;;;;40.70;16.90;;;;;;;;;;110133;1280;23155;-81
2023/01/22 07:34:57;;;;;;;47.80;20.30;;;;;;;;;;110296;1264;22120;-81
2023/01/22 07:37:25;;;;;;;41.20;17.40;;;;;;;;;;110198;1280;22128;-81
2023/01/22 07:40:19;;;;;;;41.60;17.30;;;;;;;;;;110221;1280;22130;-81
2023/01/22 07:42:44;;;;;;;46.10;17.30;;;;;;;;;;110060;1280;22104;-81
2023/01/22 07:45:23;;;;;;;45.60;19.10;;;;;;;;;;110321;1263;22241;-81
2023/01/22 07:48:21;;;;;;;47.60;17.60;;;;;;;;;;110235;1280;22135;-81
2023/01/22 07:51:11;;;;;;;37.20;14.50;;;;;;;;;;109753;1287;22138;-81
2023/01/22 07:54:02;;;;;;;35.30;14.30;;;;;;;;;;109654;1269;22246;-81
2023/01/22 07:56:32;;;;;;;36.90;14.80;;;;;;;;;;109707;1287;22177;-81
2023/01/22 07:58:59;;;;;;;33.00;14.50;;;;;;;;;;109666;1287;22915;-81
2023/01/22 08:01:30;;;;;;;31.40;12.90;;;;;;;;;;109726;1287;22159;-81
2023/01/22 08:04:03;;;;;;;39.50;17.40;;;;;;;;;;109645;1266;22199;-81
2023/01/22 08:06:31;;;;;;;41.80;15.70;;;;;;;;;;109737;1288;22003;-81
2023/01/22 08:08:59;;;;;;;38.20;16.00;;;;;;;;;;109626;1288;22148;-82
2023/01/22 08:11:27;;;;;;;34.40;13.30;;;;;;;;;;109625;1288;22173;-80
2023/01/22 08:13:55;;;;;;;32.00;14.40;;;;;;;;;;109642;1288;23414;-81
2023/01/22 08:23:56;;;;;;;44.50;17.30;;;;;;;;;;109364;1292;22194;-82
2023/01/22 08:26:27;;;;;;;46.70;18.30;;;;;;;;;;109595;1276;22208;-81
2023/01/22 08:28:57;;;;;;;56.40;21.20;;;;;;;;;;109475;1288;22128;-83
2023/01/22 08:31:34;;;;;;;54.40;21.20;;;;;;;;;;109669;1288;22945;-82
2023/01/22 08:34:04;;;;;;;49.50;21.20;;;;;;;;;;109567;1288;22145;-81
2023/01/22 08:36:55;;;;;;;53.20;21.40;;;;;;;;;;109887;1268;22570;-82
2023/01/22 08:39:42;;;;;;;47.80;17.70;;;;;;;;;;109872;1286;22188;-82
2023/01/22 08:42:20;;;;;;;34.30;13.90;;;;;;;;;;109781;1286;22146;-82
2023/01/22 08:45:41;;;;;;;27.10;12.00;;;;;;;;;;109340;1273;22188;-82
2023/01/22 08:48:35;;;;;;;32.60;13.90;;;;;;;;;;109441;1292;22162;-82
2023/01/22 08:51:25;;;;;;;26.90;11.10;;;;;;;;;;109397;1276;22137;-82
2023/01/22 08:58:02;;;;;;;22.10;10.10;;;;;;;;;;109734;1267;22159;-81
2023/01/22 09:00:35;;;;;;;31.50;14.00;;;;;;;;;;109746;1263;22168;-82
2023/01/22 09:03:08;;;;;;;57.60;23.40;;;;;;;;;;109638;1286;22178;-82
2023/01/22 09:05:39;;;;;;;26.00;11.90;;;;;;;;;;109748;1287;21755;-82
2023/01/22 09:08:12;;;;;;;21.00;10.00;;;;;;;;;;109730;1270;22160;-82
2023/01/22 09:13:31;;;;;;;34.10;15.30;;;;;;;;;;109772;1286;22255;-81
2023/01/22 09:16:12;;;;;;;34.10;15.50;;;;;;;;;;109676;1286;22494;-81
2023/01/22 09:18:43;;;;;;;61.10;29.00;;;;;;;;;;109643;1273;22641;-81
2023/01/22 09:32:16;;;;;;;;;;;;;;;;;;;;;
2023/01/22 09:35:37;;;;;;;;;;;;;;;;;;;;;
2023/01/22 09:39:00;;;;;;;68.30;27.30;;;;;;;;;;106424;1277;24235;-87
2023/01/22 09:41:45;;;;;;;46.10;20.50;;;;;;;;;;102304;1284;5386187;-82
2023/01/22 09:45:04;;;;;;;;;;;;;;;;;;;;;
2023/01/22 09:48:28;;;;;;;;;;;;;;;;;;;;;
2023/01/22 09:52:11;;;;;;;45.60;20.20;;;;;;;;;;106199;1286;22805;-86
2023/01/22 09:54:47;;;;;;;;;;;;;;;;;;;;;
2023/01/22 09:57:28;;;;;;;57.30;24.90;;;;;;;;;;106317;1287;26612;-81
2023/01/22 10:00:47;;;;;;;;;;;;;;;;;;;;;
2023/01/22 10:04:33;;;;;;;50.00;20.70;;;;;;;;;;106235;1287;25442;-84
2023/01/22 10:17:43;;;;;;;47.80;17.90;;;;;;;;;;105050;1293;22803;-84
2023/01/22 10:21:17;;;;;;;41.40;17.20;;;;;;;;;;105126;1294;24290;-85
2023/01/22 10:23:55;;;;;;;;;;;;;;;;;;;;;
2023/01/22 10:27:05;;;;;;;;;;;;;;;;;;;;;
2023/01/22 10:30:34;;;;;;;;;;;;;;;;;;;;;
2023/01/22 10:33:37;;;;;;;;;;;;;;;;;;;;;
2023/01/22 10:36:57;;;;;;;;;;;;;;;;;;;;;
2023/01/22 10:43:59;;;;;;;47.20;20.70;;;;;;;;;;105202;1300;22560;-85
2023/01/22 10:47:19;;;;;;;;;;;;;;;;;;;;;
2023/01/22 10:50:40;;;;;;;40.10;19.40;;;;;;;;;;104987;1302;22810;-84
2023/01/22 10:54:00;;;;;;;33.90;14.70;;;;;;;;;;104649;1302;25442;-83
2023/01/22 11:08:46;;;;;;;28.50;12.10;;;;;;;;;;106088;1291;22532;-85
2023/01/22 11:12:07;;;;;;;25.20;11.10;;;;;;;;;;106210;1288;23167;-87
2023/01/22 11:15:37;;;;;;;25.90;10.80;;;;;;;;;;106220;1266;22549;-88
2023/01/22 11:19:05;;;;;;;26.50;11.20;;;;;;;;;;102148;1285;5381491;-82
2023/01/22 11:22:18;;;;;;;;;;;;;;;;;;;;;
2023/01/22 11:28:51;;;;;;;;;;;;;;;;;;;;;
2023/01/22 11:32:27;;;;;;;20.50;8.50;;;;;;;;;;108215;1303;22192;-82
2023/01/22 11:35:54;;;;;;;22.50;9.00;;;;;;;;;;108163;1285;22213;-81
2023/01/22 11:39:20;;;;;;;22.20;9.50;;;;;;;;;;107497;1309;22199;-81
2023/01/22 11:42:18;;;;;;;24.20;9.80;;;;;;;;;;107524;1309;21852;-82
2023/01/22 11:45:57;;;;;;;21.50;8.90;;;;;;;;;;107976;1289;22860;-82
2023/01/22 11:48:59;;;;;;;17.50;6.50;;;;;;;;;;108365;1303;22143;-81
2023/01/22 11:52:45;;;;;;;21.20;8.70;;;;;;;;;;108371;1303;22475;-82
2023/01/22 11:55:44;;;;;;;;;;;;;;;;;;;;;
2023/01/22 12:02:41;;;;;;;21.50;9.60;;;;;;;;;;109414;1290;22498;-82
2023/01/22 12:05:56;;;;;;;;;;;;;;;;;;;;;
2023/01/22 12:09:17;;;;;;;;;;;;;;;;;;;;;
2023/01/22 12:13:03;;;;;;;20.30;8.80;;;;;;;;;;109376;1277;22029;-82
2023/01/22 12:16:30;;;;;;;20.10;8.00;;;;;;;;;;109686;1262;22244;-82
2023/01/22 12:19:47;;;;;;;20.20;7.90;;;;;;;;;;109309;1293;22194;-82
2023/01/22 12:22:37;;;;;;;;;;;;;;;;;;;;;
2023/01/22 12:34:07;;;;;;;;;;;;;;;;;;;;;
2023/01/22 12:49:45;;;;;;;;;;;;;;;;;;;;;
2023/01/22 13:00:49;;;;;;;;;;;;;;;;;;;;;
2023/01/22 13:08:53;;;;;;;29.20;12.60;;;;;;;;;;106917;1317;23064;-83
2023/01/22 13:12:01;;;;;;;30.80;13.40;;;;;;;;;;106810;1307;23131;-84
2023/01/22 13:25:38;;;;;;;35.30;16.30;;;;;;;;;;110134;1271;22742;-84
2023/01/22 13:32:45;;;;;;;;;;;;;;;;;;;;;
2023/01/22 13:44:08;;;;;;;29.00;12.60;;;;;;;;;;108475;1282;22165;-85
2023/01/22 13:47:11;;;;;;;34.00;14.60;;;;;;;;;;108415;1301;22223;-84
2023/01/22 14:01:48;;;;;;;35.40;15.40;;;;;;;;;;107418;1311;22276;-86
2023/01/22 14:12:37;;;;;;;27.40;11.70;;;;;;;;;;107231;1313;22237;-85
2023/01/22 14:30:40;;;;;;;38.00;15.40;;;;;;;;;;104072;1292;544984;-86
2023/01/22 14:33:11;;;;;;;33.50;15.30;;;;;;;;;;106018;1287;22569;-85
2023/01/22 14:36:21;;;;;;;40.50;17.90;;;;;;;;;;106023;1287;22668;-85
2023/01/22 14:46:05;;;;;;;37.70;15.70;;;;;;;;;;105822;1292;22562;-84
2023/01/22 14:49:46;;;;;;;39.70;17.00;;;;;;;;;;105795;1288;25228;-83
2023/01/22 14:51:59;;;;;;;40.20;16.50;;;;;;;;;;105780;1288;24228;-84
2023/01/22 14:58:32;;;;;;;62.10;28.00;;;;;;;;;;105709;1291;22675;-82
2023/01/22 15:09:13;;;;;;;46.50;19.00;;;;;;;;;;104930;1295;25264;-83
2023/01/22 15:12:04;;;;;;;;;;;;;;;;;;;;;
2023/01/22 15:15:24;;;;;;;;;;;;;;;;;;;;;
2023/01/22 15:18:55;;;;;;;69.80;25.50;;;;;;;;;;104575;1306;22578;-86
2023/01/22 15:22:19;;;;;;;69.00;26.40;;;;;;;;;;104685;1287;22519;-81
2023/01/22 15:25:49;;;;;;;55.60;23.10;;;;;;;;;;104742;1305;24386;-82
2023/01/22 15:28:52;;;;;;;;;;;;;;;;;;;;;
2023/01/22 15:36:27;;;;;;;56.40;23.10;;;;;;;;;;103896;1295;545338;-85
2023/01/22 15:39:55;;;;;;;53.00;23.40;;;;;;;;;;106034;1288;24254;-88
2023/01/22 15:42:41;;;;;;;47.60;20.00;;;;;;;;;;105780;1294;22655;-82
2023/01/22 15:46:34;;;;;;;45.10;19.60;;;;;;;;;;105288;1281;22836;-86
2023/01/22 15:49:24;;;;;;;47.60;19.40;;;;;;;;;;101535;1297;5377252;-86
2023/01/22 15:55:44;;;;;;;52.00;22.80;;;;;;;;;;105462;1298;22569;-84
2023/01/22 15:59:12;;;;;;;59.30;24.30;;;;;;;;;;105350;1298;25318;-82
2023/01/22 16:02:13;;;;;;;53.30;22.10;;;;;;;;;;105413;1292;22755;-84
2023/01/22 16:05:57;;;;;;;49.30;20.50;;;;;;;;;;105246;1278;25498;-83
2023/01/22 16:08:58;;;;;;;;;;;;;;;;;;;;;
2023/01/22 16:11:56;;;;;;;52.50;21.60;;;;;;;;;;105660;1293;22591;-82
2023/01/22 16:14:53;;;;;;;52.70;19.20;;;;;;;;;;105340;1291;22712;-83
2023/01/22 16:18:05;;;;;;;;;;;;;;;;;;;;;
2023/01/22 16:21:15;;;;;;;41.60;17.90;;;;;;;;;;106387;1287;22551;-86
2023/01/22 16:30:42;;;;;;;39.50;16.50;;;;;;;;;;106817;1279;22537;-82
2023/01/22 16:33:52;;;;;;;;;;;;;;;;;;;;;
2023/01/22 16:37:09;;;;;;;34.80;14.80;;;;;;;;;;110025;1262;22341;-81
2023/01/22 16:40:13;;;;;;;27.70;12.70;;;;;;;;;;110129;1273;22146;-81
2023/01/22 16:44:00;;;;;;;31.00;13.80;;;;;;;;;;110068;1281;22238;-82
2023/01/22 16:47:04;;;;;;;34.20;14.80;;;;;;;;;;110655;1254;22823;-82
2023/01/22 16:50:16;;;;;;;35.00;14.70;;;;;;;;;;110575;1276;22359;-81
2023/01/22 16:52:53;;;;;;;35.30;15.50;;;;;;;;;;110536;1276;22260;-82
2023/01/22 16:55:46;;;;;;;36.70;15.80;;;;;;;;;;110455;1270;22176;-82
2023/01/22 16:58:53;;;;;;;;;;;;;;;;;;;;;
2023/01/22 17:01:52;;;;;;;;;;;;;;;;;;;;;
2023/01/22 17:04:30;;;;;;;47.00;15.40;;;;;;;;;;110495;1270;22381;-83
2023/01/22 17:07:26;;;;;;;42.90;14.90;;;;;;;;;;110442;1260;22241;-83
2023/01/22 17:11:19;;;;;;;43.50;14.90;;;;;;;;;;110460;1276;22401;-83
2023/01/22 17:13:55;;;;;;;33.50;13.60;;;;;;;;;;109929;1283;22413;-83
2023/01/22 17:17:06;;;;;;;45.20;18.10;;;;;;;;;;109873;1283;22373;-80
2023/01/22 17:19:55;;;;;;;44.90;18.10;;;;;;;;;;110026;1260;22055;-80
2023/01/22 17:31:23;;;;;;;48.90;18.30;;;;;;;;;;109240;1276;23067;-79
2023/01/22 17:34:09;;;;;;;;;;;;;;;;;;;;;
2023/01/22 17:37:17;;;;;;;;;;;;;;;;;;;;;
2023/01/22 17:48:14;;;;;;;;;;;;;;;;;;;;;
2023/01/22 17:58:25;;;;;;;;;;;;;;;;;;;;;
2023/01/22 18:01:59;;;;;;;38.60;16.50;;;;;;;;;;110045;1260;22196;-80
2023/01/22 18:04:44;;;;;;;32.90;14.90;;;;;;;;;;109898;1283;22205;-81
2023/01/22 18:07:18;;;;;;;32.10;15.00;;;;;;;;;;109968;1283;22172;-81
2023/01/22 18:10:34;;;;;;;;;;;;;;;;;;;;;
2023/01/22 18:17:27;;;;;;;44.60;18.50;;;;;;;;;;109354;1292;22229;-80
2023/01/22 18:20:04;;;;;;;38.10;17.40;;;;;;;;;;109331;1269;22188;-80
2023/01/22 18:22:43;;;;;;;42.60;18.30;;;;;;;;;;108988;1293;22887;-82
2023/01/22 18:29:43;;;;;;;33.60;14.60;;;;;;;;;;108513;1300;22219;-79
2023/01/22 18:40:31;;;;;;;;;;;;;;;;;;;;;
2023/01/22 18:51:01;;;;;;;;;;;;;;;;;;;;;
2023/01/22 18:54:14;;;;;;;35.30;15.10;;;;;;;;;;109711;1264;22877;-79
2023/01/22 18:57:11;;;;;;;;;;;;;;;;;;;;;
2023/01/22 18:59:42;;;;;;;33.40;14.50;;;;;;;;;;109751;1288;22171;-80
2023/01/22 19:02:34;;;;;;;;;;;;;;;;;;;;;
2023/01/22 19:06:20;;;;;;;36.50;15.50;;;;;;;;;;109634;1267;22170;-80
2023/01/22 19:08:38;;;;;;;41.90;16.40;;;;;;;;;;109594;1289;22267;-79
2023/01/22 19:11:17;;;;;;;38.10;16.60;;;;;;;;;;109629;1289;22178;-79
2023/01/22 19:14:42;;;;;;;;;;;;;;;;;;;;;
2023/01/22 19:21:34;;;;;;;40.90;16.70;;;;;;;;;;109828;1286;22272;-80
2023/01/22 19:24:13;;;;;;;;;;;;;;;;;;;;;
2023/01/22 19:27:24;;;;;;;47.90;17.60;;;;;;;;;;109915;1284;22188;-80
2023/01/22 19:34:24;;;;;;;;;;;;;;;;;;;;;
2023/01/22 19:45:05;;;;;;;45.30;17.40;;;;;;;;;;108847;1278;22291;-80
2023/01/22 19:47:53;;;;;;;47.40;17.20;;;;;;;;;;108754;1297;22176;-80
2023/01/22 19:50:36;;;;;;;52.10;17.30;;;;;;;;;;108914;1297;22159;-81
2023/01/22 19:53:28;;;;;;;48.60;18.60;;;;;;;;;;108872;1297;22224;-80
2023/01/22 19:55:54;;;;;;;47.30;16.00;;;;;;;;;;109125;1275;22181;-79
2023/01/22 20:07:06;;;;;;;63.00;21.50;;;;;;;;;;108774;1279;22273;-79
2023/01/22 20:09:37;;;;;;;60.50;19.90;;;;;;;;;;108821;1294;22168;-79
2023/01/22 20:12:10;;;;;;;62.40;19.50;;;;;;;;;;109104;1293;22189;-79
2023/01/22 20:14:42;;;;;;;74.70;21.00;;;;;;;;;;109508;1285;22186;-79
2023/01/22 20:17:26;;;;;;;84.40;20.90;;;;;;;;;;109992;1263;22168;-79
2023/01/22 20:20:07;;;;;;;56.50;18.90;;;;;;;;;;109948;1284;22550;-78
2023/01/22 20:22:40;;;;;;;54.40;19.90;;;;;;;;;;109899;1284;22191;-78
2023/01/22 20:25:18;;;;;;;52.70;19.50;;;;;;;;;;109923;1284;22405;-79
2023/01/22 20:35:05;;;;;;;64.50;20.20;;;;;;;;;;109948;1284;22168;-79
2023/01/22 20:48:52;;;;;;;44.70;17.40;;;;;;;;;;109871;1267;22259;-79
2023/01/22 20:51:26;;;;;;;47.00;19.20;;;;;;;;;;109782;1283;22143;-78
2023/01/22 20:53:56;;;;;;;51.30;18.10;;;;;;;;;;109778;1286;22196;-79
2023/01/22 20:56:30;;;;;;;49.90;17.60;;;;;;;;;;109805;1279;22204;-78
2023/01/22 20:59:17;;;;;;;;;;;;;;;;;;;;;
2023/01/22 21:02:52;;;;;;;43.80;17.10;;;;;;;;;;109802;1286;22188;-78
2023/01/22 21:05:28;;;;;;;;;;;;;;;;;;;;;
2023/01/22 21:08:20;;;;;;;44.90;16.80;;;;;;;;;;109619;1267;22171;-80
2023/01/22 21:10:55;;;;;;;42.20;15.20;;;;;;;;;;109617;1289;22174;-79
2023/01/22 21:13:22;;;;;;;40.10;16.20;;;;;;;;;;109621;1289;22968;-80
2023/01/22 21:15:56;;;;;;;44.50;17.40;;;;;;;;;;109611;1289;22166;-80
2023/01/22 21:18:36;;;;;;;47.80;15.20;;;;;;;;;;109602;1270;22221;-79
2023/01/22 21:25:44;;;;;;;40.40;16.20;;;;;;;;;;109539;1282;22971;-79
2023/01/22 21:28:16;;;;;;;37.20;16.20;;;;;;;;;;109579;1273;22215;-78
2023/01/22 21:30:56;;;;;;;40.70;15.90;;;;;;;;;;109627;1290;22041;-79
2023/01/22 21:33:26;;;;;;;49.90;19.40;;;;;;;;;;109526;1290;22243;-80
2023/01/22 21:35:54;;;;;;;47.20;18.30;;;;;;;;;;109532;1290;22681;-80
2023/01/22 21:38:45;;;;;;;46.60;17.40;;;;;;;;;;109587;1270;22189;-81
2023/01/22 21:48:40;;;;;;;42.50;17.60;;;;;;;;;;109520;1272;22145;-79
2023/01/22 21:51:13;;;;;;;36.40;13.10;;;;;;;;;;109501;1286;22363;-79
2023/01/22 21:53:58;;;;;;;40.70;16.20;;;;;;;;;;109757;1287;22242;-79
2023/01/22 21:56:25;;;;;;;43.00;15.80;;;;;;;;;;109757;1280;22194;-78
2023/01/22 21:58:55;;;;;;;50.00;18.50;;;;;;;;;;109854;1264;22665;-79
2023/01/22 22:01:29;;;;;;;51.20;18.70;;;;;;;;;;109802;1286;22196;-78
2023/01/22 22:04:09;;;;;;;54.20;18.20;;;;;;;;;;109728;1286;22914;-78
2023/01/22 22:06:44;;;;;;;58.20;21.40;;;;;;;;;;109829;1280;22196;-78
2023/01/22 22:09:29;;;;;;;50.40;19.20;;;;;;;;;;109836;1263;22174;-79
2023/01/22 22:12:34;;;;;;;;;;;;;;;;;;;;;
2023/01/22 22:19:15;;;;;;;;;;;;;;;;;;;;;
2023/01/22 22:21:43;;;;;;;62.80;21.30;;;;;;;;;;109339;1291;22233;-79
2023/01/22 22:24:37;;;;;;;57.60;19.70;;;;;;;;;;109492;1291;22219;-79
2023/01/22 22:27:05;;;;;;;56.10;18.70;;;;;;;;;;109341;1291;22977;-79
2023/01/22 22:29:35;;;;;;;52.70;16.70;;;;;;;;;;109323;1273;22178;-79
2023/01/22 22:32:02;;;;;;;48.10;16.40;;;;;;;;;;109299;1284;21916;-78
2023/01/22 22:34:30;;;;;;;52.60;18.00;;;;;;;;;;109874;1284;22154;-79
2023/01/22 22:36:58;;;;;;;49.40;17.40;;;;;;;;;;109930;1284;22171;-79
2023/01/22 22:39:45;;;;;;;;;;;;;;;;;;;;;
2023/01/22 22:42:32;;;;;;;41.70;17.10;;;;;;;;;;109867;1284;22123;-79
2023/01/22 22:45:35;;;;;;;;;;;;;;;;;;;;;
2023/01/22 22:59:18;;;;;;;43.70;16.90;;;;;;;;;;109737;1287;22860;-79
2023/01/22 23:01:47;;;;;;;42.80;17.20;;;;;;;;;;109704;1269;22184;-79
2023/01/22 23:04:15;;;;;;;44.00;17.80;;;;;;;;;;109661;1289;22256;-79
2023/01/22 23:06:47;;;;;;;40.20;16.80;;;;;;;;;;109719;1288;22131;-79
2023/01/22 23:09:40;;;;;;;42.30;16.80;;;;;;;;;;109709;1288;22123;-79
2023/01/22 23:12:10;;;;;;;45.80;17.70;;;;;;;;;;109671;1267;22918;-80
2023/01/22 23:14:37;;;;;;;50.00;19.80;;;;;;;;;;109774;1287;22993;-81
2023/01/22 23:17:05;;;;;;;53.30;19.70;;;;;;;;;;109697;1286;22165;-80
2023/01/22 23:19:33;;;;;;;46.00;18.50;;;;;;;;;;109719;1287;22218;-80
2023/01/22 23:29:09;;;;;;;49.60;18.70;;;;;;;;;;109740;1288;21712;-80
2023/01/22 23:31:48;;;;;;;51.90;18.90;;;;;;;;;;109775;1264;22275;-80
2023/01/22 23:38:46;;;;;;;47.60;17.20;;;;;;;;;;109958;1281;22758;-79
2023/01/22 23:41:17;;;;;;;42.30;16.50;;;;;;;;;;110099;1257;22150;-80
2023/01/22 23:43:49;;;;;;;44.20;17.60;;;;;;;;;;110096;1280;22689;-80
2023/01/22 23:51:07;;;;;;;;;;;;;;;;;;;;;
2023/01/22 23:57:03;;;;;;;39.80;16.10;;;;;;;;;;103863;1295;545010;-83
2023/01/22 23:59:32;;;;;;;39.90;16.10;;;;;;;;;;106096;1288;22543;-80
